Time;durP1;ratioP1;P1;durP2;ratioP2;P2;SDS_P1;SDS_P2;PMS_P1;PMS_P2;Temp;Humidity;BMP_temperature;BMP_pressure;BME280_temperature;BME280_humidity;BME280_pressure;Samples;Min_cycle;Max_cycle;Signal;HPM_P1;HPM_P2
2023/08/23 00:02:24;;;;;;;6.38;3.22;;;23.30;99.90;;;;;;5051253;28;20558;-59
2023/08/23 00:04:52;;;;;;;7.43;3.60;;;23.30;99.90;;;;;;5050563;28;20209;-59
2023/08/23 00:07:20;;;;;;;5.13;3.40;;;23.20;99.90;;;;;;5050352;28;20693;-59
2023/08/23 00:09:46;;;;;;;4.93;3.13;;;23.20;99.90;;;;;;5050684;28;20202;-59
2023/08/23 00:12:14;;;;;;;7.03;3.63;;;23.20;99.90;;;;;;5053071;28;20209;-60
2023/08/23 00:14:42;;;;;;;4.47;2.95;;;23.20;99.90;;;;;;5053978;28;20229;-60
2023/08/23 00:17:08;;;;;;;6.43;3.67;;;23.10;99.90;;;;;;5053670;28;20248;-60
2023/08/23 00:19:35;;;;;;;6.28;3.30;;;23.10;99.90;;;;;;5053831;28;20670;-59
2023/08/23 00:22:02;;;;;;;6.53;2.97;;;23.10;99.90;;;;;;5054001;28;20210;-60
2023/08/23 00:24:30;;;;;;;4.10;3.08;;;23.10;99.90;;;;;;5054121;28;20244;-60
2023/08/23 00:26:57;;;;;;;4.80;2.95;;;23.10;99.90;;;;;;5053609;28;20236;-60
2023/08/23 00:29:23;;;;;;;4.90;3.15;;;23.10;99.90;;;;;;5053926;28;20202;-60
2023/08/23 00:31:50;;;;;;;5.63;3.55;;;23.00;99.90;;;;;;5053774;28;20305;-60
2023/08/23 00:34:17;;;;;;;5.90;3.63;;;23.00;99.90;;;;;;5053556;28;20232;-59
2023/08/23 00:36:44;;;;;;;4.88;3.50;;;23.00;99.90;;;;;;5053270;28;20252;-60
2023/08/23 00:39:10;;;;;;;5.93;3.78;;;22.90;99.90;;;;;;5053836;28;20209;-59
2023/08/23 00:41:38;;;;;;;7.72;3.45;;;22.90;99.90;;;;;;5053526;28;20271;-59
2023/08/23 00:44:05;;;;;;;5.65;3.97;;;22.80;99.90;;;;;;5053440;28;20217;-59
2023/08/23 00:46:32;;;;;;;6.47;3.35;;;22.70;99.90;;;;;;5053176;28;20616;-59
2023/08/23 00:48:59;;;;;;;5.43;3.38;;;22.70;99.90;;;;;;5053214;28;20202;-60
2023/08/23 00:51:26;;;;;;;4.13;3.35;;;22.70;99.90;;;;;;5053412;28;20205;-60
2023/08/23 00:53:53;;;;;;;6.30;3.50;;;22.70;99.90;;;;;;5053483;28;20229;-60
2023/08/23 00:56:20;;;;;;;4.65;3.35;;;22.50;99.90;;;;;;5052896;28;20233;-60
2023/08/23 00:58:48;;;;;;;4.03;3.28;;;22.40;99.90;;;;;;5052908;28;20213;-58
2023/08/23 01:01:15;;;;;;;3.80;3.45;;;22.50;99.90;;;;;;5052869;28;20215;-58
2023/08/23 01:03:42;;;;;;;4.63;3.42;;;22.40;99.90;;;;;;5052776;28;20202;-58
2023/08/23 01:06:27;;;;;;;4.95;3.60;;;22.40;99.90;;;;;;5052553;28;20232;-59
2023/08/23 01:09:04;;;;;;;5.47;3.65;;;22.40;99.90;;;;;;5052763;28;20220;-59
2023/08/23 01:11:37;;;;;;;3.88;3.38;;;22.40;99.90;;;;;;5052858;28;20232;-60
2023/08/23 01:14:10;;;;;;;5.20;3.78;;;22.30;99.90;;;;;;5052889;28;20241;-59
2023/08/23 01:16:39;;;;;;;7.00;3.80;;;22.30;99.90;;;;;;5052563;28;20298;-61
2023/08/23 01:19:17;;;;;;;5.68;3.35;;;22.30;99.90;;;;;;5052687;28;20351;-60
2023/08/23 01:21:47;;;;;;;5.40;3.92;;;22.20;99.90;;;;;;5052937;28;20212;-59
2023/08/23 01:24:16;;;;;;;3.92;3.30;;;22.10;99.90;;;;;;5051909;28;20281;-60
2023/08/23 01:26:44;;;;;;;10.07;3.83;;;22.20;99.90;;;;;;5052063;28;20221;-59
2023/08/23 01:29:10;;;;;;;4.68;3.55;;;22.20;99.90;;;;;;5052720;28;20201;-60
2023/08/23 01:31:43;;;;;;;3.58;3.25;;;22.20;99.90;;;;;;5052382;28;20213;-60
2023/08/23 01:34:16;;;;;;;5.70;3.60;;;22.20;99.90;;;;;;5052375;28;20206;-60
2023/08/23 01:36:43;;;;;;;4.50;3.75;;;22.10;99.90;;;;;;5052182;28;20226;-60
2023/08/23 01:39:12;;;;;;;6.00;3.40;;;22.00;99.90;;;;;;5052076;28;20202;-61
2023/08/23 01:41:41;;;;;;;6.78;3.80;;;22.00;99.90;;;;;;5052024;28;20581;-59
2023/08/23 01:44:07;;;;;;;5.22;3.60;;;22.00;99.90;;;;;;5052328;28;20213;-61
2023/08/23 01:46:35;;;;;;;3.63;3.20;;;21.90;99.90;;;;;;5076271;22;20233;-63
2023/08/23 01:49:02;;;;;;;5.82;3.55;;;21.90;99.90;;;;;;5051875;28;20231;-63
2023/08/23 01:51:29;;;;;;;4.40;3.58;;;21.90;99.90;;;;;;5051981;28;20240;-63
2023/08/23 01:53:55;;;;;;;4.63;3.55;;;21.90;99.90;;;;;;5052248;28;20211;-65
2023/08/23 01:56:22;;;;;;;5.95;3.58;;;21.90;99.90;;;;;;5051984;28;20256;-63
2023/08/23 01:58:50;;;;;;;6.25;3.22;;;21.80;99.90;;;;;;5052504;28;20205;-62
2023/08/23 02:01:17;;;;;;;4.25;3.20;;;21.90;99.90;;;;;;5051792;28;20209;-63
2023/08/23 02:03:43;;;;;;;6.07;3.60;;;21.80;99.90;;;;;;5051903;28;20432;-63
2023/08/23 02:06:10;;;;;;;4.47;3.65;;;21.80;99.90;;;;;;5051174;28;20221;-63
2023/08/23 02:08:37;;;;;;;5.72;3.40;;;21.80;99.90;;;;;;5051904;28;20220;-63
2023/08/23 02:11:03;;;;;;;5.22;3.80;;;21.90;99.90;;;;;;5051880;28;20228;-63
2023/08/23 02:13:30;;;;;;;6.07;3.80;;;21.90;99.90;;;;;;5051589;28;20209;-64
2023/08/23 02:15:58;;;;;;;3.83;3.30;;;21.90;99.90;;;;;;5051194;28;20229;-63
2023/08/23 02:18:25;;;;;;;6.40;3.90;;;21.90;99.90;;;;;;5051375;28;20213;-63
2023/08/23 02:20:56;;;;;;;5.57;4.03;;;21.80;99.90;;;;;;5051440;28;20210;-63
2023/08/23 02:23:23;;;;;;;5.15;4.00;;;21.90;99.90;;;;;;5051382;28;20738;-63
2023/08/23 02:25:50;;;;;;;6.60;4.07;;;21.90;99.90;;;;;;5050923;28;20599;-63
2023/08/23 02:28:17;;;;;;;4.78;4.20;;;21.80;99.90;;;;;;5051565;28;20210;-63
2023/08/23 02:30:44;;;;;;;6.28;4.18;;;21.80;99.90;;;;;;5051369;28;20201;-63
2023/08/23 02:33:12;;;;;;;6.68;3.60;;;21.90;99.90;;;;;;5051569;28;20202;-64
2023/08/23 02:35:41;;;;;;;6.20;3.83;;;21.80;99.90;;;;;;5050200;28;20230;-66
2023/08/23 02:38:08;;;;;;;6.70;3.90;;;21.80;99.90;;;;;;5051278;28;20565;-63
2023/08/23 02:40:35;;;;;;;5.55;4.20;;;21.70;99.90;;;;;;5051232;28;20610;-63
2023/08/23 02:43:02;;;;;;;6.57;3.60;;;21.60;99.90;;;;;;5051131;28;20605;-63
2023/08/23 02:45:28;;;;;;;4.60;4.13;;;21.40;99.90;;;;;;5051085;28;20232;-63
2023/08/23 02:47:55;;;;;;;6.55;4.00;;;21.40;99.90;;;;;;5050595;28;20212;-63
2023/08/23 02:50:23;;;;;;;10.25;3.72;;;21.40;99.90;;;;;;5050863;28;20300;-64
2023/08/23 02:52:50;;;;;;;4.80;3.97;;;21.40;99.90;;;;;;5051044;28;20213;-64
2023/08/23 02:55:17;;;;;;;6.47;4.22;;;21.40;99.90;;;;;;5050877;28;20225;-63
2023/08/23 02:57:43;;;;;;;6.25;4.03;;;21.40;99.90;;;;;;5050470;28;20666;-63
2023/08/23 03:00:11;;;;;;;6.15;3.55;;;21.40;99.90;;;;;;5050919;28;20580;-63
2023/08/23 03:02:38;;;;;;;5.50;3.78;;;21.30;99.90;;;;;;5051143;28;20263;-63
2023/08/23 03:05:06;;;;;;;6.90;4.00;;;21.30;99.90;;;;;;5050609;28;20547;-63
2023/08/23 03:07:34;;;;;;;5.07;3.97;;;21.20;99.90;;;;;;5050818;28;20212;-63
2023/08/23 03:10:01;;;;;;;5.97;4.10;;;21.20;99.90;;;;;;5050979;28;20684;-63
2023/08/23 03:12:27;;;;;;;4.95;3.78;;;21.10;99.90;;;;;;5050866;28;20213;-64
2023/08/23 03:14:54;;;;;;;6.53;3.90;;;21.10;99.90;;;;;;5050677;28;20209;-63
2023/08/23 03:17:21;;;;;;;5.85;4.07;;;21.00;99.90;;;;;;5050753;28;20230;-63
2023/08/23 03:19:48;;;;;;;5.20;4.05;;;21.00;99.90;;;;;;5050937;28;20217;-63
2023/08/23 03:22:15;;;;;;;8.88;4.05;;;21.00;99.90;;;;;;5050566;28;20209;-63
2023/08/23 03:24:43;;;;;;;16.83;15.18;;;20.90;99.90;;;;;;5050813;28;20251;-62
2023/08/23 03:27:10;;;;;;;44.33;39.83;;;20.90;99.90;;;;;;5050528;28;20217;-62
2023/08/23 03:29:36;;;;;;;9.13;4.72;;;20.90;99.90;;;;;;5050497;28;20205;-63
2023/08/23 03:32:03;;;;;;;5.45;4.00;;;20.90;99.90;;;;;;5050770;28;20228;-63
2023/08/23 03:34:30;;;;;;;4.97;3.90;;;21.00;99.90;;;;;;5050770;28;20237;-62
2023/08/23 03:36:56;;;;;;;5.95;4.20;;;21.00;99.90;;;;;;5050111;28;20237;-63
2023/08/23 03:39:23;;;;;;;7.13;4.00;;;21.00;99.90;;;;;;5050820;28;20696;-62
2023/08/23 03:41:51;;;;;;;7.22;4.32;;;21.00;99.90;;;;;;5050375;28;20209;-63
2023/08/23 03:44:18;;;;;;;6.60;3.88;;;21.00;99.90;;;;;;5050512;28;20213;-62
2023/08/23 03:46:44;;;;;;;9.75;3.90;;;21.00;99.90;;;;;;5051760;28;20739;-64
2023/08/23 03:49:11;;;;;;;8.90;4.07;;;21.10;99.90;;;;;;5054337;28;20687;-64
2023/08/23 03:51:38;;;;;;;7.00;3.85;;;21.10;99.90;;;;;;5054298;28;20220;-62
2023/08/23 03:54:04;;;;;;;6.55;3.92;;;21.10;99.90;;;;;;5054406;28;20213;-61
2023/08/23 03:56:31;;;;;;;4.65;4.15;;;21.10;99.90;;;;;;5053777;28;20252;-62
2023/08/23 03:58:59;;;;;;;4.95;4.25;;;21.00;99.90;;;;;;5054356;28;20205;-62
2023/08/23 04:01:26;;;;;;;4.75;3.90;;;21.00;99.90;;;;;;5054352;28;20601;-61
2023/08/23 04:03:53;;;;;;;3.90;3.50;;;21.00;99.90;;;;;;5054130;28;20411;-61
2023/08/23 04:06:19;;;;;;;4.85;4.22;;;20.90;99.90;;;;;;5053723;28;20320;-62
2023/08/23 04:08:46;;;;;;;6.28;4.25;;;20.90;99.90;;;;;;5054017;28;20625;-63
2023/08/23 04:11:13;;;;;;;6.47;4.65;;;20.90;99.90;;;;;;5053905;28;20234;-63
2023/08/23 04:13:39;;;;;;;7.82;4.63;;;20.90;99.90;;;;;;5053677;28;20201;-64
2023/08/23 04:16:07;;;;;;;7.85;4.60;;;20.90;99.90;;;;;;5053578;28;20226;-63
2023/08/23 04:18:34;;;;;;;10.18;4.43;;;20.90;99.90;;;;;;5053916;28;20216;-63
2023/08/23 04:21:01;;;;;;;5.50;4.18;;;20.90;99.90;;;;;;5053723;28;20205;-63
2023/08/23 04:23:28;;;;;;;6.53;4.63;;;20.90;99.90;;;;;;5053927;28;20213;-63
2023/08/23 04:25:55;;;;;;;5.50;4.25;;;21.00;99.90;;;;;;5053426;28;20225;-62
2023/08/23 04:28:22;;;;;;;5.53;4.28;;;21.00;99.90;;;;;;5053739;28;20228;-64
2023/08/23 04:30:49;;;;;;;7.63;3.95;;;20.90;99.90;;;;;;5053711;28;20213;-63
2023/08/23 04:33:17;;;;;;;8.25;4.15;;;20.90;99.90;;;;;;5053517;28;20205;-65
2023/08/23 04:35:44;;;;;;;8.27;4.32;;;21.00;99.90;;;;;;5053261;28;20646;-62
2023/08/23 04:38:13;;;;;;;7.15;4.20;;;21.00;99.90;;;;;;5053342;28;20548;-63
2023/08/23 04:40:40;;;;;;;7.10;4.50;;;21.00;99.90;;;;;;5053635;28;20201;-64
2023/08/23 04:43:07;;;;;;;6.65;4.20;;;21.10;99.90;;;;;;5053527;28;20293;-63
2023/08/23 04:45:37;;;;;;;4.55;4.05;;;21.10;99.90;;;;;;5053447;28;20237;-63
2023/08/23 04:48:04;;;;;;;7.95;4.40;;;21.10;99.90;;;;;;5053323;28;20241;-63
2023/08/23 04:50:33;;;;;;;7.25;4.20;;;21.10;99.90;;;;;;5053116;28;20681;-63
2023/08/23 04:53:00;;;;;;;5.07;4.22;;;21.10;99.90;;;;;;5053401;28;20233;-64
2023/08/23 04:55:27;;;;;;;5.78;3.92;;;21.20;99.90;;;;;;5053093;28;20229;-63
2023/08/23 04:57:54;;;;;;;5.47;4.22;;;21.10;99.90;;;;;;5051800;28;20213;-62
2023/08/23 05:00:21;;;;;;;10.73;4.20;;;21.20;99.90;;;;;;5053212;28;20213;-64
2023/08/23 05:02:48;;;;;;;5.75;4.53;;;21.20;99.90;;;;;;5053042;28;20202;-63
2023/08/23 05:05:14;;;;;;;5.07;4.38;;;21.20;99.90;;;;;;5052687;28;20208;-62
2023/08/23 05:07:42;;;;;;;5.32;4.40;;;21.20;99.90;;;;;;5052646;28;20204;-62
2023/08/23 05:10:10;;;;;;;8.10;4.57;;;21.30;99.90;;;;;;5052863;28;20216;-63
2023/08/23 05:12:36;;;;;;;5.60;3.97;;;21.30;99.90;;;;;;5052585;28;20606;-63
2023/08/23 05:15:04;;;;;;;7.38;4.20;;;21.40;99.90;;;;;;5052859;28;20210;-63
2023/08/23 05:17:30;;;;;;;6.20;4.25;;;21.50;99.90;;;;;;5052469;28;20268;-63
2023/08/23 05:19:57;;;;;;;6.43;4.13;;;21.50;99.90;;;;;;5052435;28;20213;-63
2023/08/23 05:22:24;;;;;;;4.38;4.00;;;21.60;99.90;;;;;;5052823;28;20212;-63
2023/08/23 05:24:52;;;;;;;5.13;4.03;;;21.70;99.90;;;;;;5052632;28;20602;-63
2023/08/23 05:27:18;;;;;;;4.97;4.20;;;21.80;99.90;;;;;;5052266;28;20230;-63
2023/08/23 05:29:45;;;;;;;4.75;4.13;;;21.90;99.90;;;;;;5052581;28;20205;-63
2023/08/23 05:32:12;;;;;;;5.78;3.65;;;22.00;99.90;;;;;;5052151;28;20237;-63
2023/08/23 05:34:40;;;;;;;8.48;4.05;;;22.10;99.90;;;;;;5052605;28;20209;-63
2023/08/23 05:37:07;;;;;;;4.30;3.83;;;22.20;99.90;;;;;;5052108;28;20237;-63
2023/08/23 05:39:34;;;;;;;8.25;4.20;;;22.30;99.90;;;;;;5052287;28;20209;-64
2023/08/23 05:42:02;;;;;;;5.20;4.18;;;22.40;99.90;;;;;;5052327;28;20307;-63
2023/08/23 05:44:28;;;;;;;5.18;3.75;;;22.60;99.90;;;;;;5052123;28;20209;-62
2023/08/23 05:46:55;;;;;;;5.22;3.70;;;23.10;99.90;;;;;;5051177;28;20693;-63
2023/08/23 05:49:22;;;;;;;4.85;3.92;;;24.10;99.90;;;;;;5052368;28;20209;-64
2023/08/23 05:51:50;;;;;;;5.20;3.63;;;25.40;99.90;;;;;;5052290;28;20205;-63
2023/08/23 05:54:16;;;;;;;3.83;3.17;;;26.70;99.90;;;;;;5052072;28;20216;-64
2023/08/23 05:56:43;;;;;;;6.00;3.25;;;27.60;99.90;;;;;;5051468;28;20229;-63
2023/08/23 05:59:11;;;;;;;5.13;3.33;;;28.60;99.90;;;;;;5051875;28;20217;-63
2023/08/23 06:01:38;;;;;;;5.60;3.47;;;29.40;99.90;;;;;;5051728;28;20232;-64
2023/08/23 06:04:05;;;;;;;7.07;3.40;;;30.20;99.90;;;;;;5051807;28;20205;-64
2023/08/23 06:06:33;;;;;;;6.03;3.47;;;31.00;99.90;;;;;;5051595;28;20222;-63
2023/08/23 06:09:00;;;;;;;8.13;3.60;;;31.70;99.90;;;;;;5051343;28;20225;-63
2023/08/23 06:11:27;;;;;;;3.85;3.40;;;32.50;99.90;;;;;;5051694;28;20299;-62
2023/08/23 06:13:56;;;;;;;4.93;3.40;;;33.20;99.90;;;;;;5051231;28;20209;-62
2023/08/23 06:16:24;;;;;;;6.43;3.92;;;33.90;99.90;;;;;;5050917;28;20573;-63
2023/08/23 06:18:50;;;;;;;7.90;4.38;;;34.30;99.90;;;;;;5051667;28;20206;-62
2023/08/23 06:21:17;;;;;;;7.25;3.80;;;34.60;99.90;;;;;;5051416;28;20673;-62
2023/08/23 06:23:44;;;;;;;6.82;3.80;;;35.00;99.90;;;;;;5051578;28;20205;-62
2023/08/23 06:26:11;;;;;;;5.03;3.95;;;35.30;99.90;;;;;;5051015;28;20308;-63
2023/08/23 06:28:37;;;;;;;6.03;4.22;;;35.70;98.50;;;;;;5051291;28;20212;-64
2023/08/23 06:31:04;;;;;;;8.02;4.10;;;35.80;97.60;;;;;;5051584;28;20210;-62
2023/08/23 06:33:32;;;;;;;4.65;4.18;;;35.90;96.50;;;;;;5051322;28;20214;-65
2023/08/23 06:35:59;;;;;;;4.40;3.83;;;36.20;96.50;;;;;;5051144;28;20808;-63
2023/08/23 06:38:26;;;;;;;10.45;4.70;;;36.40;94.40;;;;;;5051572;28;20217;-63
2023/08/23 06:40:52;;;;;;;6.80;3.80;;;35.50;94.90;;;;;;5051303;28;20229;-63
2023/08/23 06:43:19;;;;;;;7.07;4.18;;;35.40;95.30;;;;;;5051357;28;20225;-64
2023/08/23 06:45:46;;;;;;;6.80;3.70;;;35.60;95.50;;;;;;5051192;28;20240;-63
2023/08/23 06:48:13;;;;;;;5.47;3.72;;;36.40;94.10;;;;;;5051483;28;20487;-62
2023/08/23 06:50:41;;;;;;;6.93;4.00;;;36.70;92.30;;;;;;5051603;28;20685;-63
2023/08/23 06:53:08;;;;;;;5.15;3.58;;;36.30;92.40;;;;;;5051457;28;20255;-63
2023/08/23 06:55:39;;;;;;;6.13;3.58;;;36.10;92.80;;;;;;5050911;28;20225;-62
2023/08/23 06:58:07;;;;;;;5.57;3.70;;;36.40;92.20;;;;;;5051439;28;20225;-63
2023/08/23 07:00:34;;;;;;;5.68;3.67;;;37.10;90.90;;;;;;5051677;28;20244;-63
2023/08/23 07:03:01;;;;;;;7.80;3.45;;;37.80;90.10;;;;;;5051310;28;20696;-63
2023/08/23 07:05:27;;;;;;;6.10;3.78;;;38.70;86.30;;;;;;5051498;28;20705;-63
2023/08/23 07:07:55;;;;;;;7.03;3.50;;;39.40;83.10;;;;;;5051541;28;20197;-64
2023/08/23 07:10:22;;;;;;;4.93;3.60;;;39.90;80.30;;;;;;5050993;28;20209;-63
2023/08/23 07:12:49;;;;;;;10.05;5.45;;;40.20;78.20;;;;;;5050909;28;20209;-63
2023/08/23 07:15:16;;;;;;;6.68;3.97;;;40.10;78.50;;;;;;5050804;28;20205;-62
2023/08/23 07:17:42;;;;;;;5.40;3.65;;;40.00;76.90;;;;;;5050663;28;20221;-62
2023/08/23 07:20:12;;;;;;;7.07;4.10;;;38.70;79.30;;;;;;5050762;28;20208;-63
2023/08/23 07:22:38;;;;;;;6.97;4.00;;;37.50;82.60;;;;;;5054171;28;20296;-63
2023/08/23 07:25:08;;;;;;;4.88;3.70;;;36.30;85.40;;;;;;5054980;28;20209;-63
2023/08/23 07:27:36;;;;;;;4.60;3.25;;;35.90;87.40;;;;;;5054882;28;20224;-63
2023/08/23 07:30:04;;;;;;;6.00;3.60;;;35.90;86.90;;;;;;5054698;28;20673;-62
2023/08/23 07:32:32;;;;;;;6.70;3.42;;;36.00;86.10;;;;;;5054768;28;20206;-63
2023/08/23 07:35:00;;;;;;;7.05;3.42;;;36.80;84.30;;;;;;5054826;28;20208;-64
2023/08/23 07:37:27;;;;;;;5.47;3.20;;;37.40;81.60;;;;;;5054351;28;20225;-64
2023/08/23 07:39:55;;;;;;;4.82;3.20;;;37.90;81.00;;;;;;5054518;28;20207;-63
2023/08/23 07:42:24;;;;;;;6.10;3.33;;;38.80;80.00;;;;;;5054875;28;20213;-64
2023/08/23 07:44:51;;;;;;;6.15;3.40;;;39.80;76.80;;;;;;5054809;28;20209;-65
2023/08/23 07:47:18;;;;;;;5.22;3.45;;;40.50;74.70;;;;;;5077260;22;20236;-63
2023/08/23 07:49:44;;;;;;;7.40;3.50;;;40.70;73.60;;;;;;5054122;28;20201;-60
2023/08/23 07:52:11;;;;;;;8.45;3.67;;;40.90;72.30;;;;;;5054449;28;20319;-60
2023/08/23 07:54:38;;;;;;;6.50;3.70;;;41.50;70.60;;;;;;5054355;28;20209;-60
2023/08/23 07:57:05;;;;;;;6.93;3.63;;;41.70;68.80;;;;;;5054156;28;20228;-60
2023/08/23 07:59:33;;;;;;;7.05;3.60;;;41.20;69.10;;;;;;5054563;28;20204;-62
2023/08/23 08:02:00;;;;;;;6.93;3.63;;;40.80;70.40;;;;;;5054346;28;20201;-60
2023/08/23 08:04:27;;;;;;;5.10;3.33;;;40.90;69.60;;;;;;5054259;28;20743;-61
2023/08/23 08:06:54;;;;;;;5.90;3.17;;;41.50;68.00;;;;;;5054271;28;20667;-61
2023/08/23 08:09:21;;;;;;;3.10;2.80;;;41.80;66.60;;;;;;5054311;28;20213;-60
2023/08/23 08:11:48;;;;;;;7.80;2.97;;;42.40;64.90;;;;;;5054204;28;20739;-60
2023/08/23 08:14:14;;;;;;;4.72;3.53;;;42.00;64.70;;;;;;5054221;28;20581;-63
2023/08/23 08:16:42;;;;;;;6.55;3.05;;;40.30;67.70;;;;;;5053588;28;20229;-60
2023/08/23 08:19:09;;;;;;;6.68;3.63;;;38.90;71.00;;;;;;5054257;28;20632;-59
2023/08/23 08:21:36;;;;;;;8.70;3.40;;;37.60;73.80;;;;;;5054127;28;20212;-61
2023/08/23 08:24:03;;;;;;;6.32;3.45;;;36.70;76.40;;;;;;5054132;28;20222;-61
2023/08/23 08:26:30;;;;;;;4.60;3.40;;;36.20;77.90;;;;;;5053749;28;20237;-61
2023/08/23 08:28:56;;;;;;;5.35;3.42;;;35.70;79.30;;;;;;5054071;28;20212;-61
2023/08/23 08:31:23;;;;;;;6.50;3.78;;;35.10;81.30;;;;;;5053951;28;20357;-61
2023/08/23 08:33:51;;;;;;;5.85;3.72;;;34.60;83.30;;;;;;5053802;28;20217;-59
2023/08/23 08:36:18;;;;;;;6.28;3.25;;;33.80;85.60;;;;;;5053688;28;20229;-62
2023/08/23 08:38:45;;;;;;;6.38;4.05;;;32.90;88.30;;;;;;5053684;28;20232;-59
2023/08/23 08:41:12;;;;;;;7.85;3.63;;;32.10;90.60;;;;;;5053734;28;20216;-60
2023/08/23 08:43:39;;;;;;;8.68;3.50;;;31.50;91.90;;;;;;5053580;28;20275;-60
2023/08/23 08:46:06;;;;;;;7.20;3.72;;;31.20;92.80;;;;;;5052897;28;20244;-60
2023/08/23 08:48:33;;;;;;;6.18;3.75;;;31.20;93.10;;;;;;5053544;28;20201;-60
2023/08/23 08:51:03;;;;;;;6.88;3.60;;;31.30;93.50;;;;;;5053323;28;20209;-60
2023/08/23 08:53:32;;;;;;;8.00;3.70;;;31.20;93.90;;;;;;5053524;28;20495;-60
2023/08/23 08:56:00;;;;;;;4.97;3.70;;;31.00;94.50;;;;;;5049365;28;20319;-64
2023/08/23 08:58:28;;;;;;;5.68;3.72;;;30.70;95.20;;;;;;5051740;28;20295;-64
2023/08/23 09:00:58;;;;;;;5.47;3.67;;;30.60;95.70;;;;;;5052201;28;20209;-62
2023/08/23 09:03:27;;;;;;;4.43;3.78;;;30.70;96.10;;;;;;5052316;28;20212;-63
2023/08/23 09:05:54;;;;;;;5.72;3.63;;;30.60;96.10;;;;;;5051749;28;20283;-62
2023/08/23 09:08:23;;;;;;;6.60;3.75;;;30.60;96.30;;;;;;5052135;28;20209;-62
2023/08/23 09:10:50;;;;;;;7.88;3.70;;;30.50;97.10;;;;;;5051682;28;20209;-62
2023/08/23 09:13:17;;;;;;;6.38;3.80;;;30.40;97.00;;;;;;5051903;28;20202;-62
2023/08/23 09:15:43;;;;;;;7.90;3.60;;;30.80;96.80;;;;;;5051686;28;20709;-61
2023/08/23 09:18:10;;;;;;;5.40;3.47;;;31.10;96.10;;;;;;5051903;28;20225;-63
2023/08/23 09:20:37;;;;;;;4.45;3.28;;;31.40;95.70;;;;;;5052068;28;20210;-61
2023/08/23 09:23:04;;;;;;;5.78;3.50;;;31.50;95.50;;;;;;5051868;28;20233;-64
2023/08/23 09:25:32;;;;;;;8.18;3.80;;;31.40;95.40;;;;;;5051530;28;20201;-63
2023/08/23 09:27:58;;;;;;;8.52;4.10;;;31.20;96.20;;;;;;5051415;28;20637;-64
2023/08/23 09:30:26;;;;;;;7.25;3.45;;;31.10;96.30;;;;;;5051882;28;20482;-66
2023/08/23 09:32:52;;;;;;;4.68;3.60;;;30.90;97.00;;;;;;5051986;28;20593;-65
2023/08/23 09:35:19;;;;;;;5.10;3.17;;;30.80;97.10;;;;;;5051406;28;20292;-65
2023/08/23 09:37:48;;;;;;;8.35;3.65;;;30.70;97.60;;;;;;5051141;28;20236;-63
2023/08/23 09:40:19;;;;;;;8.25;3.92;;;30.70;97.70;;;;;;5051763;28;20656;-65
2023/08/23 09:42:48;;;;;;;5.20;3.47;;;30.50;98.10;;;;;;5051460;28;20550;-62
2023/08/23 09:45:17;;;;;;;8.20;3.60;;;30.40;98.30;;;;;;5051177;28;20210;-63
2023/08/23 09:47:51;;;;;;;5.00;3.47;;;30.30;98.60;;;;;;5050642;28;20263;-63
2023/08/23 09:50:19;;;;;;;8.38;3.70;;;30.20;98.60;;;;;;5051794;28;20206;-63
2023/08/23 09:52:48;;;;;;;5.93;3.83;;;30.20;98.60;;;;;;5051427;28;20205;-65
2023/08/23 09:55:15;;;;;;;5.32;3.72;;;30.30;98.30;;;;;;5049871;28;20209;-62
2023/08/23 09:57:42;;;;;;;8.18;3.42;;;30.60;98.10;;;;;;5043973;28;20229;-62
2023/08/23 10:00:11;;;;;;;8.10;4.10;;;30.70;98.10;;;;;;5051050;28;20197;-59
2023/08/23 10:02:39;;;;;;;5.93;3.85;;;30.90;98.10;;;;;;5051334;28;20586;-63
2023/08/23 10:05:07;;;;;;;5.10;3.65;;;30.90;97.90;;;;;;5049439;28;20209;-65
2023/08/23 10:07:34;;;;;;;6.57;3.88;;;30.70;98.30;;;;;;5048492;28;20264;-61
2023/08/23 10:10:03;;;;;;;5.10;3.65;;;30.60;98.30;;;;;;5049049;28;20308;-62
2023/08/23 10:12:31;;;;;;;6.10;3.92;;;30.50;98.20;;;;;;5049466;28;20318;-61
2023/08/23 10:15:00;;;;;;;8.90;3.58;;;30.40;98.30;;;;;;5050024;28;20656;-61
2023/08/23 10:17:28;;;;;;;5.72;4.03;;;30.40;98.40;;;;;;5049389;28;20225;-61
2023/08/23 10:19:55;;;;;;;7.35;3.90;;;30.50;98.50;;;;;;5048154;28;20205;-61
2023/08/23 10:22:24;;;;;;;4.55;3.38;;;30.60;97.80;;;;;;5049063;28;20555;-61
2023/08/23 10:24:51;;;;;;;4.93;3.60;;;30.70;97.50;;;;;;5050357;28;20209;-61
2023/08/23 10:27:18;;;;;;;6.05;3.83;;;30.80;97.40;;;;;;5049423;28;20445;-59
2023/08/23 10:29:50;;;;;;;6.82;3.55;;;31.00;96.90;;;;;;5048598;28;20205;-62
2023/08/23 10:32:17;;;;;;;6.93;3.78;;;31.20;96.70;;;;;;5049804;28;20244;-63
2023/08/23 10:34:45;;;;;;;5.32;3.60;;;31.40;96.20;;;;;;5050163;28;20208;-61
2023/08/23 10:37:16;;;;;;;5.97;3.58;;;31.40;96.30;;;;;;5047523;28;20230;-60
2023/08/23 10:39:49;;;;;;;5.22;3.60;;;31.30;96.20;;;;;;5048670;28;20201;-60
2023/08/23 10:42:17;;;;;;;4.50;3.70;;;31.30;96.50;;;;;;5050406;28;20201;-65
2023/08/23 10:44:50;;;;;;;5.47;3.30;;;31.20;96.60;;;;;;5049745;28;20244;-63
2023/08/23 10:47:17;;;;;;;5.57;3.30;;;31.10;95.80;;;;;;5043021;28;20260;-60
2023/08/23 10:49:46;;;;;;;7.40;3.50;;;31.20;95.70;;;;;;5049965;28;20243;-64
2023/08/23 10:52:13;;;;;;;6.78;3.70;;;31.10;95.70;;;;;;5049027;28;20412;-61
2023/08/23 10:54:41;;;;;;;9.10;3.38;;;31.00;95.90;;;;;;5049872;28;20617;-60
2023/08/23 10:57:07;;;;;;;5.60;3.25;;;31.10;95.80;;;;;;5049290;28;20244;-60
2023/08/23 10:59:34;;;;;;;5.63;3.55;;;31.30;95.60;;;;;;5050050;28;20237;-61
2023/08/23 11:02:01;;;;;;;6.38;3.20;;;31.50;95.10;;;;;;5049325;28;20218;-62
2023/08/23 11:04:28;;;;;;;5.00;3.30;;;31.80;94.40;;;;;;5049510;28;20209;-61
2023/08/23 11:06:57;;;;;;;4.50;3.20;;;31.80;94.20;;;;;;5049932;28;20236;-63
2023/08/23 11:09:24;;;;;;;5.60;3.25;;;31.80;94.10;;;;;;5049895;28;20197;-61
2023/08/23 11:11:50;;;;;;;6.88;3.08;;;31.90;94.40;;;;;;5049790;28;20209;-61
2023/08/23 11:14:17;;;;;;;8.30;3.22;;;31.80;94.50;;;;;;5050142;28;20580;-64
2023/08/23 11:16:44;;;;;;;6.25;3.67;;;31.90;94.10;;;;;;5049978;28;20221;-60
2023/08/23 11:19:13;;;;;;;4.32;3.05;;;31.80;94.00;;;;;;5049942;28;20232;-65
2023/08/23 11:21:40;;;;;;;8.02;3.50;;;31.80;94.40;;;;;;5049306;28;20562;-60
2023/08/23 11:24:08;;;;;;;6.18;2.97;;;31.90;94.10;;;;;;5049789;28;20716;-61
2023/08/23 11:26:35;;;;;;;3.78;3.10;;;31.90;93.50;;;;;;5050005;28;20225;-61
2023/08/23 11:29:02;;;;;;;5.07;3.35;;;32.00;93.30;;;;;;5049988;28;20205;-61
2023/08/23 11:31:29;;;;;;;4.28;3.22;;;32.30;93.00;;;;;;5049898;28;20280;-62
2023/08/23 11:33:57;;;;;;;4.32;2.85;;;32.50;92.60;;;;;;5050113;28;20237;-60
2023/08/23 11:36:26;;;;;;;5.28;3.00;;;32.40;92.70;;;;;;5049085;28;20322;-62
2023/08/23 11:38:54;;;;;;;4.97;3.35;;;32.50;92.80;;;;;;5049930;28;20295;-61
2023/08/23 11:41:29;;;;;;;6.75;3.30;;;32.40;92.70;;;;;;5049896;28;20210;-62
2023/08/23 11:43:56;;;;;;;5.80;3.60;;;32.40;92.60;;;;;;5049949;28;20738;-62
2023/08/23 11:46:23;;;;;;;8.13;3.30;;;32.30;92.50;;;;;;5049246;28;20732;-62
2023/08/23 11:48:49;;;;;;;5.00;2.97;;;32.20;92.50;;;;;;5049352;28;20201;-62
2023/08/23 11:51:16;;;;;;;7.53;3.47;;;32.20;92.60;;;;;;5049565;28;20217;-61
2023/08/23 11:53:54;;;;;;;9.38;3.22;;;32.20;92.50;;;;;;5049267;28;20212;-57
2023/08/23 11:56:21;;;;;;;5.25;3.10;;;32.40;92.50;;;;;;5049516;28;20256;-61
2023/08/23 11:58:50;;;;;;;4.95;2.90;;;32.30;92.20;;;;;;5049731;28;20225;-62
2023/08/23 12:01:16;;;;;;;8.00;2.83;;;32.20;92.40;;;;;;5049579;28;20213;-64
2023/08/23 12:03:44;;;;;;;8.25;3.22;;;32.10;92.30;;;;;;5067204;28;20213;-59
2023/08/23 12:06:11;;;;;;;5.47;3.30;;;32.00;92.40;;;;;;5070778;28;20264;-59
2023/08/23 12:08:38;;;;;;;7.60;3.33;;;31.90;92.30;;;;;;5073638;28;20204;-60
2023/08/23 12:11:05;;;;;;;6.93;3.42;;;31.90;92.30;;;;;;5074347;28;20209;-59
2023/08/23 12:13:32;;;;;;;7.28;3.05;;;32.00;92.10;;;;;;5074283;28;20295;-59
2023/08/23 12:16:00;;;;;;;5.43;2.70;;;32.10;92.20;;;;;;5073608;28;20225;-59
2023/08/23 12:18:27;;;;;;;6.05;3.20;;;32.30;91.90;;;;;;5073715;28;20571;-60
2023/08/23 12:20:54;;;;;;;5.78;2.80;;;32.50;91.80;;;;;;5073933;28;20205;-60
2023/08/23 12:23:21;;;;;;;4.78;2.85;;;32.70;91.30;;;;;;5074052;28;20217;-60
2023/08/23 12:25:47;;;;;;;6.00;3.00;;;32.80;90.90;;;;;;5073729;28;20232;-61
2023/08/23 12:28:14;;;;;;;6.07;2.80;;;32.90;90.90;;;;;;5073828;28;20209;-61
2023/08/23 12:30:41;;;;;;;5.00;2.80;;;32.90;90.80;;;;;;5073517;28;20624;-60
2023/08/23 12:33:09;;;;;;;3.95;2.55;;;32.80;90.40;;;;;;5073552;28;20212;-59
2023/08/23 12:35:36;;;;;;;3.88;2.90;;;32.80;90.50;;;;;;5073800;28;20201;-59
2023/08/23 12:38:03;;;;;;;5.93;3.20;;;32.80;90.80;;;;;;5073247;28;20201;-60
2023/08/23 12:40:30;;;;;;;5.75;2.85;;;32.90;91.10;;;;;;5073150;28;20292;-60
2023/08/23 12:42:56;;;;;;;4.10;3.17;;;33.00;91.00;;;;;;5073497;28;20209;-60
2023/08/23 12:45:23;;;;;;;5.65;2.85;;;33.20;90.70;;;;;;5073233;28;20209;-60
2023/08/23 12:47:50;;;;;;;7.32;3.22;;;33.10;90.50;;;;;;5072941;28;20730;-60